sensor_id;sensor_type;location;lat;lon;timestamp;pressure;altitude;pressure_sealevel;temperature;humidity
76592;BME280;65481;47.600;19.682;2023-12-07T00:01:30;99999.34;;;1.09;100.00
76592;BME280;65481;47.600;19.682;2023-12-07T00:06:30;100007.16;;;1.09;100.00
76592;BME280;65481;47.600;19.682;2023-12-07T00:11:31;100013.81;;;1.03;100.00
76592;BME280;65481;47.600;19.682;2023-12-07T00:16:32;100007.19;;;0.92;100.00
76592;BME280;65481;47.600;19.682;2023-12-07T00:21:32;100018.09;;;0.96;100.00
76592;BME280;65481;47.600;19.682;2023-12-07T00:26:33;100012.56;;;0.90;100.00
76592;BME280;65481;47.600;19.682;2023-12-07T00:31:33;100008.41;;;0.81;100.00
76592;BME280;65481;47.600;19.682;2023-12-07T00:36:34;100020.56;;;0.89;100.00
76592;BME280;65481;47.600;19.682;2023-12-07T00:41:35;100033.22;;;0.84;100.00
76592;BME280;65481;47.600;19.682;2023-12-07T00:46:35;100031.78;;;0.81;100.00
76592;BME280;65481;47.600;19.682;2023-12-07T00:51:36;100028.81;;;0.84;100.00
76592;BME280;65481;47.600;19.682;2023-12-07T00:56:36;100039.09;;;0.78;100.00
76592;BME280;65481;47.600;19.682;2023-12-07T01:01:37;100038.81;;;0.72;100.00
76592;BME280;65481;47.600;19.682;2023-12-07T01:06:39;100035.72;;;0.69;100.00
76592;BME280;65481;47.600;19.682;2023-12-07T01:11:39;100037.84;;;0.65;100.00
76592;BME280;65481;47.600;19.682;2023-12-07T01:16:40;100039.13;;;0.61;100.00
76592;BME280;65481;47.600;19.682;2023-12-07T01:21:41;100037.84;;;0.57;100.00
76592;BME280;65481;47.600;19.682;2023-12-07T01:26:42;100035.44;;;0.55;100.00
76592;BME280;65481;47.600;19.682;2023-12-07T01:31:43;100027.63;;;0.55;100.00
76592;BME280;65481;47.600;19.682;2023-12-07T01:36:44;100036.53;;;0.61;100.00
76592;BME280;65481;47.600;19.682;2023-12-07T01:41:44;100026.50;;;0.58;100.00
76592;BME280;65481;47.600;19.682;2023-12-07T01:46:46;100036.06;;;0.57;100.00
76592;BME280;65481;47.600;19.682;2023-12-07T01:51:47;100029.41;;;0.63;100.00
76592;BME280;65481;47.600;19.682;2023-12-07T01:56:50;100033.75;;;0.71;100.00
76592;BME280;65481;47.600;19.682;2023-12-07T02:01:51;100026.94;;;0.70;100.00
76592;BME280;65481;47.600;19.682;2023-12-07T02:06:54;100033.09;;;0.69;100.00
76592;BME280;65481;47.600;19.682;2023-12-07T02:11:57;100032.97;;;0.70;100.00
76592;BME280;65481;47.600;19.682;2023-12-07T02:22:23;100026.00;;;0.63;100.00
76592;BME280;65481;47.600;19.682;2023-12-07T02:27:43;100030.38;;;0.62;100.00
76592;BME280;65481;47.600;19.682;2023-12-07T02:32:46;100027.63;;;0.55;100.00
76592;BME280;65481;47.600;19.682;2023-12-07T02:37:49;100033.94;;;0.61;100.00
76592;BME280;65481;47.600;19.682;2023-12-07T02:42:51;100037.69;;;0.58;100.00
76592;BME280;65481;47.600;19.682;2023-12-07T02:47:51;100033.00;;;0.54;100.00
76592;BME280;65481;47.600;19.682;2023-12-07T02:52:52;100039.66;;;0.56;100.00
76592;BME280;65481;47.600;19.682;2023-12-07T02:57:52;100027.16;;;0.52;100.00
76592;BME280;65481;47.600;19.682;2023-12-07T03:02:53;100042.56;;;0.53;100.00
76592;BME280;65481;47.600;19.682;2023-12-07T03:07:54;100044.38;;;0.53;100.00
76592;BME280;65481;47.600;19.682;2023-12-07T03:12:54;100038.03;;;0.47;100.00
76592;BME280;65481;47.600;19.682;2023-12-07T03:17:55;100032.84;;;0.47;100.00
76592;BME280;65481;47.600;19.682;2023-12-07T03:22:55;100035.63;;;0.45;100.00
76592;BME280;65481;47.600;19.682;2023-12-07T03:27:56;100048.59;;;0.45;100.00
76592;BME280;65481;47.600;19.682;2023-12-07T03:32:56;100051.38;;;0.44;100.00
76592;BME280;65481;47.600;19.682;2023-12-07T03:37:57;100045.22;;;0.45;100.00
76592;BME280;65481;47.600;19.682;2023-12-07T03:42:57;100053.78;;;0.45;100.00
76592;BME280;65481;47.600;19.682;2023-12-07T03:47:58;100059.44;;;0.49;100.00
76592;BME280;65481;47.600;19.682;2023-12-07T03:52:58;100053.97;;;0.44;100.00
76592;BME280;65481;47.600;19.682;2023-12-07T03:57:59;100060.78;;;0.45;100.00
76592;BME280;65481;47.600;19.682;2023-12-07T04:02:59;100063.84;;;0.49;100.00
76592;BME280;65481;47.600;19.682;2023-12-07T04:08:00;100072.59;;;0.48;100.00
76592;BME280;65481;47.600;19.682;2023-12-07T04:13:01;100082.03;;;0.49;100.00
76592;BME280;65481;47.600;19.682;2023-12-07T04:18:01;100074.06;;;0.50;100.00
76592;BME280;65481;47.600;19.682;2023-12-07T04:23:02;100072.59;;;0.48;100.00
76592;BME280;65481;47.600;19.682;2023-12-07T04:28:03;100074.22;;;0.49;100.00
76592;BME280;65481;47.600;19.682;2023-12-07T04:33:04;100082.03;;;0.49;100.00
76592;BME280;65481;47.600;19.682;2023-12-07T04:38:04;100084.75;;;0.47;100.00
76592;BME280;65481;47.600;19.682;2023-12-07T04:43:05;100086.88;;;0.52;100.00
76592;BME280;65481;47.600;19.682;2023-12-07T04:48:05;100079.56;;;0.47;100.00
76592;BME280;65481;47.600;19.682;2023-12-07T04:53:06;100087.22;;;0.49;100.00
76592;BME280;65481;47.600;19.682;2023-12-07T04:58:06;100088.97;;;0.48;100.00
76592;BME280;65481;47.600;19.682;2023-12-07T05:03:07;100098.91;;;0.44;100.00
76592;BME280;65481;47.600;19.682;2023-12-07T05:08:07;100101.03;;;0.41;100.00
76592;BME280;65481;47.600;19.682;2023-12-07T05:13:08;100101.31;;;0.46;100.00
76592;BME280;65481;47.600;19.682;2023-12-07T05:18:09;100102.94;;;0.47;100.00
76592;BME280;65481;47.600;19.682;2023-12-07T05:23:10;100112.19;;;0.50;100.00
76592;BME280;65481;47.600;19.682;2023-12-07T05:28:10;100113.97;;;0.49;100.00
76592;BME280;65481;47.600;19.682;2023-12-07T05:33:11;100122.41;;;0.51;100.00
76592;BME280;65481;47.600;19.682;2023-12-07T05:38:12;100121.09;;;0.47;100.00
76592;BME280;65481;47.600;19.682;2023-12-07T05:43:12;100132.00;;;0.51;100.00
76592;BME280;65481;47.600;19.682;2023-12-07T05:48:13;100136.69;;;0.47;100.00
76592;BME280;65481;47.600;19.682;2023-12-07T05:53:14;100146.75;;;0.50;100.00
76592;BME280;65481;47.600;19.682;2023-12-07T05:58:14;100146.44;;;0.53;100.00
76592;BME280;65481;47.600;19.682;2023-12-07T06:03:15;100155.53;;;0.57;100.00
76592;BME280;65481;47.600;19.682;2023-12-07T06:08:16;100165.25;;;0.55;100.00
76592;BME280;65481;47.600;19.682;2023-12-07T06:13:17;100160.25;;;0.54;100.00
76592;BME280;65481;47.600;19.682;2023-12-07T06:18:17;100164.59;;;0.53;100.00
76592;BME280;65481;47.600;19.682;2023-12-07T06:23:18;100170.78;;;0.52;100.00
76592;BME280;65481;47.600;19.682;2023-12-07T06:28:18;100169.63;;;0.55;100.00
76592;BME280;65481;47.600;19.682;2023-12-07T06:33:19;100173.53;;;0.51;100.00
76592;BME280;65481;47.600;19.682;2023-12-07T06:38:20;100180.50;;;0.58;100.00
76592;BME280;65481;47.600;19.682;2023-12-07T06:43:20;100185.88;;;0.65;100.00
76592;BME280;65481;47.600;19.682;2023-12-07T06:48:21;100184.38;;;0.71;100.00
76592;BME280;65481;47.600;19.682;2023-12-07T06:53:21;100193.47;;;0.75;100.00
76592;BME280;65481;47.600;19.682;2023-12-07T06:58:22;100187.97;;;0.78;100.00
76592;BME280;65481;47.600;19.682;2023-12-07T07:03:23;100204.19;;;0.88;100.00
76592;BME280;65481;47.600;19.682;2023-12-07T07:08:24;100199.31;;;0.94;100.00
76592;BME280;65481;47.600;19.682;2023-12-07T07:13:25;100198.16;;;1.04;100.00
76592;BME280;65481;47.600;19.682;2023-12-07T07:18:25;100203.00;;;1.16;100.00
76592;BME280;65481;47.600;19.682;2023-12-07T07:23:27;100209.16;;;1.23;100.00
76592;BME280;65481;47.600;19.682;2023-12-07T07:28:28;100203.59;;;1.34;100.00
76592;BME280;65481;47.600;19.682;2023-12-07T07:33:28;100212.50;;;1.48;100.00
76592;BME280;65481;47.600;19.682;2023-12-07T07:38:29;100224.19;;;1.53;100.00
76592;BME280;65481;47.600;19.682;2023-12-07T07:43:29;100223.03;;;1.55;100.00
76592;BME280;65481;47.600;19.682;2023-12-07T07:48:30;100227.25;;;1.56;100.00
76592;BME280;65481;47.600;19.682;2023-12-07T07:53:32;100237.97;;;1.53;100.00
76592;BME280;65481;47.600;19.682;2023-12-07T07:58:32;100226.47;;;1.47;100.00
76592;BME280;65481;47.600;19.682;2023-12-07T08:03:34;100233.31;;;1.40;100.00
76592;BME280;65481;47.600;19.682;2023-12-07T08:08:34;100233.28;;;1.48;100.00
76592;BME280;65481;47.600;19.682;2023-12-07T08:13:35;100242.34;;;1.61;100.00
76592;BME280;65481;47.600;19.682;2023-12-07T08:18:35;100237.78;;;1.63;100.00
76592;BME280;65481;47.600;19.682;2023-12-07T08:23:36;100243.94;;;1.70;100.00
76592;BME280;65481;47.600;19.682;2023-12-07T08:28:36;100251.56;;;1.72;100.00
76592;BME280;65481;47.600;19.682;2023-12-07T08:33:37;100256.94;;;1.70;100.00
76592;BME280;65481;47.600;19.682;2023-12-07T08:38:40;100257.28;;;1.67;100.00
76592;BME280;65481;47.600;19.682;2023-12-07T08:43:40;100268.94;;;1.79;100.00
76592;BME280;65481;47.600;19.682;2023-12-07T08:48:41;100270.88;;;1.77;100.00
76592;BME280;65481;47.600;19.682;2023-12-07T08:53:41;100270.44;;;1.74;100.00
76592;BME280;65481;47.600;19.682;2023-12-07T08:58:42;100275.63;;;1.74;100.00
76592;BME280;65481;47.600;19.682;2023-12-07T09:03:42;100274.19;;;1.71;100.00
76592;BME280;65481;47.600;19.682;2023-12-07T09:08:43;100275.16;;;1.70;100.00
76592;BME280;65481;47.600;19.682;2023-12-07T09:13:44;100283.50;;;1.57;100.00
76592;BME280;65481;47.600;19.682;2023-12-07T09:18:44;100274.84;;;1.57;100.00
76592;BME280;65481;47.600;19.682;2023-12-07T09:23:46;100276.34;;;1.59;100.00
76592;BME280;65481;47.600;19.682;2023-12-07T09:28:46;100266.13;;;1.49;100.00
76592;BME280;65481;47.600;19.682;2023-12-07T09:33:47;100271.47;;;1.56;100.00
76592;BME280;65481;47.600;19.682;2023-12-07T09:38:47;100270.31;;;1.59;100.00
76592;BME280;65481;47.600;19.682;2023-12-07T09:43:48;100271.28;;;1.58;100.00
76592;BME280;65481;47.600;19.682;2023-12-07T09:48:49;100271.63;;;1.55;100.00
76592;BME280;65481;47.600;19.682;2023-12-07T09:53:52;100268.72;;;1.41;100.00
76592;BME280;65481;47.600;19.682;2023-12-07T09:58:53;100278.47;;;1.47;100.00
76592;BME280;65481;47.600;19.682;2023-12-07T10:04:22;100275.41;;;1.44;100.00
76592;BME280;65481;47.600;19.682;2023-12-07T10:09:26;100269.38;;;1.43;100.00
76592;BME280;65481;47.600;19.682;2023-12-07T10:14:27;100269.50;;;1.50;100.00
76592;BME280;65481;47.600;19.682;2023-12-07T10:19:28;100269.38;;;1.51;100.00
76592;BME280;65481;47.600;19.682;2023-12-07T10:24:28;100271.63;;;1.55;100.00
76592;BME280;65481;47.600;19.682;2023-12-07T10:29:35;100273.75;;;1.51;100.00
76592;BME280;65481;47.600;19.682;2023-12-07T10:34:36;100267.06;;;1.57;100.00
76592;BME280;65481;47.600;19.682;2023-12-07T10:39:37;100270.03;;;1.45;100.00
76592;BME280;65481;47.600;19.682;2023-12-07T10:44:41;100280.75;;;1.42;100.00
76592;BME280;65481;47.600;19.682;2023-12-07T10:49:43;100285.63;;;1.45;100.00
76592;BME280;65481;47.600;19.682;2023-12-07T10:54:54;100280.59;;;1.44;100.00
76592;BME280;65481;47.600;19.682;2023-12-07T11:00:00;100280.44;;;1.45;100.00
76592;BME280;65481;47.600;19.682;2023-12-07T11:05:01;100284.66;;;1.46;100.00
76592;BME280;65481;47.600;19.682;2023-12-07T11:10:12;100285.78;;;1.52;100.00
76592;BME280;65481;47.600;19.682;2023-12-07T11:15:16;100290.97;;;1.52;100.00
76592;BME280;65481;47.600;19.682;2023-12-07T11:20:43;100287.72;;;1.58;100.00
76592;BME280;65481;47.600;19.682;2023-12-07T11:25:45;100287.38;;;1.53;100.00
76592;BME280;65481;47.600;19.682;2023-12-07T11:30:46;100289.47;;;1.58;100.00
76592;BME280;65481;47.600;19.682;2023-12-07T11:36:07;100291.09;;;1.59;100.00
76592;BME280;65481;47.600;19.682;2023-12-07T11:41:09;100287.19;;;1.71;100.00
76592;BME280;65481;47.600;19.682;2023-12-07T11:46:11;100292.69;;;1.76;100.00
76592;BME280;65481;47.600;19.682;2023-12-07T11:51:11;100297.41;;;1.73;100.00
76592;BME280;65481;47.600;19.682;2023-12-07T11:56:12;100300.00;;;1.81;100.00
76592;BME280;65481;47.600;19.682;2023-12-07T12:01:20;100294.03;;;1.72;100.00
76592;BME280;65481;47.600;19.682;2023-12-07T12:06:23;100300.50;;;1.76;100.00
76592;BME280;65481;47.600;19.682;2023-12-07T12:11:24;100295.13;;;1.78;100.00
76592;BME280;65481;47.600;19.682;2023-12-07T12:16:24;100298.03;;;1.83;100.00
76592;BME280;65481;47.600;19.682;2023-12-07T12:21:25;100303.59;;;1.80;100.00
76592;BME280;65481;47.600;19.682;2023-12-07T12:26:26;100297.88;;;1.76;100.00
76592;BME280;65481;47.600;19.682;2023-12-07T12:31:26;100297.22;;;1.83;100.00
76592;BME280;65481;47.600;19.682;2023-12-07T12:36:27;100309.22;;;1.92;100.00
76592;BME280;65481;47.600;19.682;2023-12-07T12:41:28;100307.13;;;1.87;100.00
76592;BME280;65481;47.600;19.682;2023-12-07T12:46:34;100311.53;;;1.87;100.00
76592;BME280;65481;47.600;19.682;2023-12-07T12:51:37;100299.44;;;1.94;100.00
76592;BME280;65481;47.600;19.682;2023-12-07T12:56:38;100308.53;;;2.06;100.00
76592;BME280;65481;47.600;19.682;2023-12-07T13:01:39;100305.81;;;1.91;100.00
76592;BME280;65481;47.600;19.682;2023-12-07T13:06:39;100311.19;;;1.90;100.00
76592;BME280;65481;47.600;19.682;2023-12-07T13:11:40;100314.47;;;1.84;100.00
76592;BME280;65481;47.600;19.682;2023-12-07T13:16:40;100325.25;;;1.72;100.00
76592;BME280;65481;47.600;19.682;2023-12-07T13:21:41;100327.53;;;1.67;100.00
76592;BME280;65481;47.600;19.682;2023-12-07T13:26:42;100328.81;;;1.63;100.00
76592;BME280;65481;47.600;19.682;2023-12-07T13:31:42;100330.91;;;1.67;100.00
76592;BME280;65481;47.600;19.682;2023-12-07T13:36:43;100330.78;;;1.61;100.00
76592;BME280;65481;47.600;19.682;2023-12-07T13:41:43;100344.94;;;1.58;100.00
76592;BME280;65481;47.600;19.682;2023-12-07T13:46:44;100355.16;;;1.60;100.00
76592;BME280;65481;47.600;19.682;2023-12-07T13:51:45;100360.03;;;1.63;100.00
76592;BME280;65481;47.600;19.682;2023-12-07T13:56:46;100370.75;;;1.60;100.00
76592;BME280;65481;47.600;19.682;2023-12-07T14:01:47;100381.66;;;1.47;100.00
76592;BME280;65481;47.600;19.682;2023-12-07T14:06:47;100371.91;;;1.49;100.00
76592;BME280;65481;47.600;19.682;2023-12-07T14:11:48;100380.06;;;1.46;100.00
76592;BME280;65481;47.600;19.682;2023-12-07T14:16:48;100384.44;;;1.45;100.00
76592;BME280;65481;47.600;19.682;2023-12-07T14:21:50;100390.63;;;1.44;100.00
76592;BME280;65481;47.600;19.682;2023-12-07T14:26:51;100398.09;;;1.39;100.00
76592;BME280;65481;47.600;19.682;2023-12-07T14:31:53;100406.72;;;1.40;100.00
76592;BME280;65481;47.600;19.682;2023-12-07T14:36:54;100406.69;;;1.31;100.00
76592;BME280;65481;47.600;19.682;2023-12-07T14:41:54;100408.97;;;1.34;100.00
76592;BME280;65481;47.600;19.682;2023-12-07T14:46:56;100404.75;;;1.33;100.00
76592;BME280;65481;47.600;19.682;2023-12-07T14:51:57;100413.38;;;1.34;100.00
76592;BME280;65481;47.600;19.682;2023-12-07T14:56:59;100419.88;;;1.30;100.00
76592;BME280;65481;47.600;19.682;2023-12-07T15:02:01;100427.69;;;1.30;100.00
76592;BME280;65481;47.600;19.682;2023-12-07T15:07:01;100438.56;;;1.25;100.00
76592;BME280;65481;47.600;19.682;2023-12-07T15:12:03;100428.47;;;1.14;100.00
76592;BME280;65481;47.600;19.682;2023-12-07T15:17:05;100446.66;;;1.14;100.00
76592;BME280;65481;47.600;19.682;2023-12-07T15:22:05;100436.56;;;1.11;100.00
76592;BME280;65481;47.600;19.682;2023-12-07T15:27:06;100444.72;;;1.16;100.00
76592;BME280;65481;47.600;19.682;2023-12-07T15:32:06;100448.28;;;1.15;100.00
76592;BME280;65481;47.600;19.682;2023-12-07T15:37:09;100458.81;;;1.05;100.00
76592;BME280;65481;47.600;19.682;2023-12-07T15:42:12;100444.34;;;0.86;100.00
76592;BME280;65481;47.600;19.682;2023-12-07T15:47:13;100458.25;;;0.77;100.00
76592;BME280;65481;47.600;19.682;2023-12-07T15:52:14;100461.03;;;0.83;100.00
76592;BME280;65481;47.600;19.682;2023-12-07T15:57:14;100467.91;;;0.93;100.00
76592;BME280;65481;47.600;19.682;2023-12-07T16:02:15;100454.38;;;0.81;100.00
76592;BME280;65481;47.600;19.682;2023-12-07T16:07:16;100462.53;;;0.86;100.00
76592;BME280;65481;47.600;19.682;2023-12-07T16:12:17;100483.66;;;0.91;100.00
76592;BME280;65481;47.600;19.682;2023-12-07T16:17:17;100479.56;;;0.80;100.00
76592;BME280;65481;47.600;19.682;2023-12-07T16:22:18;100477.38;;;0.67;100.00
76592;BME280;65481;47.600;19.682;2023-12-07T16:27:19;100485.00;;;0.69;100.00
76592;BME280;65481;47.600;19.682;2023-12-07T16:32:19;100490.72;;;0.72;100.00
76592;BME280;65481;47.600;19.682;2023-12-07T16:37:20;100504.63;;;0.63;100.00
76592;BME280;65481;47.600;19.682;2023-12-07T16:42:20;100499.31;;;0.73;100.00
76592;BME280;65481;47.600;19.682;2023-12-07T16:47:21;100502.59;;;0.75;100.00
76592;BME280;65481;47.600;19.682;2023-12-07T16:52:22;100497.88;;;0.79;100.00
76592;BME280;65481;47.600;19.682;2023-12-07T16:57:23;100503.25;;;0.85;100.00
76592;BME280;65481;47.600;19.682;2023-12-07T17:02:24;100511.91;;;0.94;100.00
76592;BME280;65481;47.600;19.682;2023-12-07T17:07:26;100517.69;;;0.80;100.00
76592;BME280;65481;47.600;19.682;2023-12-07T17:12:26;100529.34;;;0.75;100.00
76592;BME280;65481;47.600;19.682;2023-12-07T17:17:27;100528.88;;;0.72;100.00
76592;BME280;65481;47.600;19.682;2023-12-07T17:22:27;100533.69;;;0.67;100.00
76592;BME280;65481;47.600;19.682;2023-12-07T17:27:27;100538.88;;;0.58;100.00
76592;BME280;65481;47.600;19.682;2023-12-07T17:32:28;100534.47;;;0.59;100.00
76592;BME280;65481;47.600;19.682;2023-12-07T17:37:29;100534.47;;;0.59;100.00
76592;BME280;65481;47.600;19.682;2023-12-07T17:42:29;100544.38;;;0.55;100.00
76592;BME280;65481;47.600;19.682;2023-12-07T17:47:30;100542.72;;;0.54;100.00
76592;BME280;65481;47.600;19.682;2023-12-07T17:52:30;100554.25;;;0.52;100.00
76592;BME280;65481;47.600;19.682;2023-12-07T17:57:30;100563.16;;;0.49;100.00
76592;BME280;65481;47.600;19.682;2023-12-07T18:02:31;100551.00;;;0.50;100.00
76592;BME280;65481;47.600;19.682;2023-12-07T18:07:31;100548.22;;;0.51;100.00
76592;BME280;65481;47.600;19.682;2023-12-07T18:12:32;100554.16;;;0.62;100.00
76592;BME280;65481;47.600;19.682;2023-12-07T18:17:32;100548.50;;;0.74;100.00
76592;BME280;65481;47.600;19.682;2023-12-07T18:22:33;100550.50;;;0.81;100.00
76592;BME280;65481;47.600;19.682;2023-12-07T18:27:33;100545.00;;;0.84;100.00
76592;BME280;65481;47.600;19.682;2023-12-07T18:32:34;100557.31;;;0.82;100.00
76592;BME280;65481;47.600;19.682;2023-12-07T18:37:36;100569.50;;;0.81;100.00
76592;BME280;65481;47.600;19.682;2023-12-07T18:42:36;100565.78;;;0.84;100.00
76592;BME280;65481;47.600;19.682;2023-12-07T18:47:37;100565.91;;;0.82;100.00
76592;BME280;65481;47.600;19.682;2023-12-07T18:52:38;100569.75;;;0.70;100.00
76592;BME280;65481;47.600;19.682;2023-12-07T18:57:39;100568.44;;;0.66;100.00
76592;BME280;65481;47.600;19.682;2023-12-07T19:02:41;100582.75;;;0.70;100.00
76592;BME280;65481;47.600;19.682;2023-12-07T19:07:41;100585.03;;;0.73;100.00
76592;BME280;65481;47.600;19.682;2023-12-07T19:12:42;100574.09;;;0.61;100.00
76592;BME280;65481;47.600;19.682;2023-12-07T19:17:42;100578.97;;;0.64;100.00
76592;BME280;65481;47.600;19.682;2023-12-07T19:22:43;100576.44;;;0.72;100.00
76592;BME280;65481;47.600;19.682;2023-12-07T19:27:44;100580.22;;;0.78;100.00
76592;BME280;65481;47.600;19.682;2023-12-07T19:32:45;100569.66;;;0.80;100.00
76592;BME280;65481;47.600;19.682;2023-12-07T19:37:45;100576.34;;;0.90;100.00
76592;BME280;65481;47.600;19.682;2023-12-07T19:42:46;100572.50;;;0.95;100.00
76592;BME280;65481;47.600;19.682;2023-12-07T19:47:46;100567.13;;;0.96;100.00
76592;BME280;65481;47.600;19.682;2023-12-07T19:52:47;100574.91;;;0.96;100.00
76592;BME280;65481;47.600;19.682;2023-12-07T19:57:48;100573.81;;;0.99;100.00
76592;BME280;65481;47.600;19.682;2023-12-07T20:02:48;100573.47;;;0.94;100.00
76592;BME280;65481;47.600;19.682;2023-12-07T20:07:50;100569.06;;;0.94;100.00
76592;BME280;65481;47.600;19.682;2023-12-07T20:12:50;100574.25;;;0.94;100.00
76592;BME280;65481;47.600;19.682;2023-12-07T20:17:51;100562.91;;;0.95;100.00
76592;BME280;65481;47.600;19.682;2023-12-07T20:22:51;100567.09;;;0.88;100.00
76592;BME280;65481;47.600;19.682;2023-12-07T20:27:54;100583.41;;;0.72;100.00
76592;BME280;65481;47.600;19.682;2023-12-07T20:32:55;100586.78;;;0.64;100.00
76592;BME280;65481;47.600;19.682;2023-12-07T20:37:55;100582.59;;;0.71;100.00
76592;BME280;65481;47.600;19.682;2023-12-07T20:42:56;100582.44;;;0.73;100.00
76592;BME280;65481;47.600;19.682;2023-12-07T20:47:57;100589.09;;;0.75;100.00
76592;BME280;65481;47.600;19.682;2023-12-07T20:52:57;100583.78;;;0.77;100.00
76592;BME280;65481;47.600;19.682;2023-12-07T20:58:00;100591.75;;;0.84;100.00
76592;BME280;65481;47.600;19.682;2023-12-07T21:03:01;100600.22;;;0.86;100.00
76592;BME280;65481;47.600;19.682;2023-12-07T21:08:02;100608.97;;;0.85;100.00
76592;BME280;65481;47.600;19.682;2023-12-07T21:13:02;100604.59;;;0.85;100.00
76592;BME280;65481;47.600;19.682;2023-12-07T21:18:03;100612.38;;;0.85;100.00
76592;BME280;65481;47.600;19.682;2023-12-07T21:23:03;100619.84;;;0.80;100.00
76592;BME280;65481;47.600;19.682;2023-12-07T21:28:04;100626.59;;;0.73;100.00
76592;BME280;65481;47.600;19.682;2023-12-07T21:33:04;100627.88;;;0.69;100.00
76592;BME280;65481;47.600;19.682;2023-12-07T21:38:05;100644.59;;;0.66;100.00
76592;BME280;65481;47.600;19.682;2023-12-07T21:43:05;100641.31;;;0.64;100.00
76592;BME280;65481;47.600;19.682;2023-12-07T21:48:06;100646.16;;;0.59;100.00
76592;BME280;65481;47.600;19.682;2023-12-07T21:53:07;100637.25;;;0.62;100.00
76592;BME280;65481;47.600;19.682;2023-12-07T21:58:07;100656.09;;;0.64;100.00
76592;BME280;65481;47.600;19.682;2023-12-07T22:03:08;100655.72;;;0.58;100.00
76592;BME280;65481;47.600;19.682;2023-12-07T22:08:08;100653.63;;;0.62;100.00
76592;BME280;65481;47.600;19.682;2023-12-07T22:13:09;100654.75;;;0.59;100.00
76592;BME280;65481;47.600;19.682;2023-12-07T22:18:09;100649.28;;;0.63;100.00
76592;BME280;65481;47.600;19.682;2023-12-07T22:23:10;100643.75;;;0.66;100.00
76592;BME280;65481;47.600;19.682;2023-12-07T22:28:10;100642.94;;;0.65;100.00
76592;BME280;65481;47.600;19.682;2023-12-07T22:33:11;100634.31;;;0.65;100.00
76592;BME280;65481;47.600;19.682;2023-12-07T22:38:13;100637.47;;;0.68;100.00
76592;BME280;65481;47.600;19.682;2023-12-07T22:43:13;100639.59;;;0.73;100.00
76592;BME280;65481;47.600;19.682;2023-12-07T22:48:14;100638.78;;;0.72;100.00
76592;BME280;65481;47.600;19.682;2023-12-07T22:53:14;100642.38;;;0.80;100.00
76592;BME280;65481;47.600;19.682;2023-12-07T22:58:15;100643.91;;;0.90;100.00
76592;BME280;65481;47.600;19.682;2023-12-07T23:03:15;100636.47;;;0.96;100.00
76592;BME280;65481;47.600;19.682;2023-12-07T23:08:16;100630.97;;;0.99;100.00
76592;BME280;65481;47.600;19.682;2023-12-07T23:13:16;100619.63;;;1.00;100.00
76592;BME280;65481;47.600;19.682;2023-12-07T23:18:17;100610.38;;;1.05;100.00
76592;BME280;65481;47.600;19.682;2023-12-07T23:23:19;100617.03;;;1.08;100.00
76592;BME280;65481;47.600;19.682;2023-12-07T23:28:19;100621.94;;;1.11;100.00
76592;BME280;65481;47.600;19.682;2023-12-07T23:33:19;100614.94;;;1.12;100.00
76592;BME280;65481;47.600;19.682;2023-12-07T23:38:20;100604.72;;;1.10;100.00
76592;BME280;65481;47.600;19.682;2023-12-07T23:43:21;100610.72;;;1.11;100.00
76592;BME280;65481;47.600;19.682;2023-12-07T23:48:22;100597.53;;;1.04;100.00
76592;BME280;65481;47.600;19.682;2023-12-07T23:53:22;100600.66;;;1.08;100.00
76592;BME280;65481;47.600;19.682;2023-12-07T23:58:23;100601.25;;;1.01;100.00
